Time;durP1;ratioP1;P1;durP2;ratioP2;P2;SDS_P1;SDS_P2;PMS_P1;PMS_P2;Temp;Humidity;BMP_temperature;BMP_pressure;BME280_temperature;BME280_humidity;BME280_pressure;Samples;Min_cycle;Max_cycle;Signal;HPM_P1;HPM_P2
2024/01/07 00:01:11;;;;;;;0.00;0.00;;;;;;;-1.72;67.13;101326.66;15651108;28;20405;-45
2024/01/07 00:08:48;;;;;;;0.00;0.00;;;;;;;-1.62;67.21;101339.97;15668801;28;20045;-50
2024/01/07 00:16:27;;;;;;;2.13;1.95;;;;;;;-1.70;68.57;101335.25;15669255;28;20126;-47
2024/01/07 00:24:04;;;;;;;0.10;0.10;;;;;;;-1.58;68.49;101349.31;15651590;28;20087;-49
2024/01/07 00:31:39;;;;;;;0.00;0.00;;;;;;;-1.64;68.22;101361.09;15650085;28;20057;-49
2024/01/07 00:39:15;;;;;;;0.00;0.00;;;;;;;-1.72;69.08;101366.13;15650793;28;20033;-46
2024/01/07 00:46:48;;;;;;;0.20;0.20;;;;;;;-1.89;69.58;101385.81;15645755;28;20253;-45
2024/01/07 00:54:23;;;;;;;0.00;0.00;;;;;;;-1.85;69.05;101387.25;15650335;28;20037;-50
2024/01/07 01:01:58;;;;;;;0.10;0.10;;;;;;;-1.67;69.16;101403.47;15660706;28;20052;-49
2024/01/07 01:09:33;;;;;;;0.00;0.00;;;;;;;-1.95;68.66;101404.69;15677122;28;20076;-51
2024/01/07 01:17:09;;;;;;;0.00;0.00;;;;;;;-1.91;67.87;101415.78;15660063;28;20029;-46
2024/01/07 01:24:45;;;;;;;0.00;0.00;;;;;;;-1.90;67.78;101431.50;15659793;28;20047;-48
2024/01/07 01:32:19;;;;;;;0.00;0.00;;;;;;;-1.93;67.76;101436.97;15656700;28;20078;-47
2024/01/07 01:39:55;;;;;;;0.00;0.00;;;;;;;-2.21;67.13;101446.00;15650432;28;20461;-48
2024/01/07 01:47:29;;;;;;;0.00;0.00;;;;;;;-2.08;66.72;101445.97;15633434;28;20067;-51
2024/01/07 01:55:05;;;;;;;0.00;0.00;;;;;;;-2.07;65.72;101455.53;15640815;28;20563;-46
2024/01/07 02:02:40;;;;;;;0.00;0.00;;;;;;;-2.18;65.93;101461.59;15658054;28;20692;-48
2024/01/07 02:10:15;;;;;;;0.00;0.00;;;;;;;-2.51;65.19;101467.44;15639970;28;20067;-48
2024/01/07 02:17:49;;;;;;;0.00;0.00;;;;;;;-2.46;65.64;101469.75;15660498;28;20061;-47
2024/01/07 02:25:23;;;;;;;0.00;0.00;;;;;;;-2.48;65.04;101469.00;15677382;28;20126;-47
2024/01/07 02:33:01;;;;;;;0.08;0.08;;;;;;;-2.56;65.68;101464.31;15659433;28;20060;-47
2024/01/07 02:40:36;;;;;;;0.05;0.05;;;;;;;-2.54;65.01;101482.59;15654000;28;20537;-49
2024/01/07 02:48:10;;;;;;;0.00;0.00;;;;;;;-2.63;65.15;101484.91;15651574;28;20103;-49
2024/01/07 02:55:45;;;;;;;0.00;0.00;;;;;;;-2.74;65.69;101489.25;15658032;28;20041;-47
2024/01/07 03:03:21;;;;;;;0.00;0.00;;;;;;;-2.80;64.66;101500.16;15669374;28;20045;-47
2024/01/07 03:10:56;;;;;;;0.00;0.00;;;;;;;-2.82;64.37;101503.72;15674652;28;20116;-45
2024/01/07 03:18:29;;;;;;;0.00;0.00;;;;;;;-2.95;65.02;101520.44;15653818;28;20045;-49
2024/01/07 03:26:04;;;;;;;0.00;0.00;;;;;;;-2.90;64.63;101526.19;15674079;28;20407;-50
2024/01/07 03:33:43;;;;;;;1.08;0.30;;;;;;;-3.20;65.38;101531.75;15673726;28;20110;-49
2024/01/07 03:41:20;;;;;;;0.00;0.00;;;;;;;-3.32;65.97;101525.50;15656968;28;20040;-48
2024/01/07 03:48:54;;;;;;;0.00;0.00;;;;;;;-3.40;65.46;101528.66;15668200;28;20041;-50
2024/01/07 03:56:31;;;;;;;0.00;0.00;;;;;;;-3.54;66.11;101554.97;15672924;28;20116;-49
2024/01/07 04:04:07;;;;;;;0.05;0.05;;;;;;;-3.58;65.97;101556.09;15672219;22;20352;-75
2024/01/07 04:11:43;;;;;;;0.10;0.10;;;;;;;-3.58;65.32;101569.22;15649100;28;20045;-74
2024/01/07 04:19:16;;;;;;;0.00;0.00;;;;;;;-3.63;65.69;101590.50;15667623;28;20087;-75
2024/01/07 04:26:52;;;;;;;0.22;0.22;;;;;;;-3.58;65.12;101586.75;15666879;28;20442;-76
2024/01/07 04:34:26;;;;;;;0.00;0.00;;;;;;;-3.75;65.44;101601.75;15674746;28;20465;-72
2024/01/07 04:42:01;;;;;;;0.00;0.00;;;;;;;-3.74;65.77;101598.19;15615865;28;20443;-72
2024/01/07 04:49:36;;;;;;;0.00;0.00;;;;;;;-3.72;65.60;101601.56;15662521;28;20037;-72
2024/01/07 04:57:13;;;;;;;0.00;0.00;;;;;;;-3.68;64.53;101603.06;15677282;28;20090;-72
2024/01/07 05:04:47;;;;;;;0.00;0.00;;;;;;;-3.77;64.13;101621.16;15671859;28;20045;-72
2024/01/07 05:12:21;;;;;;;0.00;0.00;;;;;;;-3.62;65.22;101628.91;15677055;28;20045;-71
2024/01/07 05:19:58;;;;;;;0.00;0.00;;;;;;;-3.77;65.60;101635.13;15659912;28;20037;-72
2024/01/07 05:27:36;;;;;;;0.00;0.00;;;;;;;-3.64;64.59;101650.91;15657353;28;20064;-72
2024/01/07 05:35:10;;;;;;;0.00;0.00;;;;;;;-3.76;64.87;101651.69;15658657;28;20041;-72
2024/01/07 05:42:46;;;;;;;0.00;0.00;;;;;;;-3.68;65.82;101667.81;15675414;28;20044;-73
2024/01/07 05:50:27;;;;;;;0.00;0.00;;;;;;;-3.68;65.34;101675.69;15670832;28;20132;-72
2024/01/07 05:58:03;;;;;;;0.00;0.00;;;;;;;-3.79;65.84;101689.44;15674670;28;20605;-72
2024/01/07 06:05:39;;;;;;;0.08;0.08;;;;;;;-3.78;66.36;101691.13;15672582;28;20328;-73
2024/01/07 06:13:13;;;;;;;0.00;0.00;;;;;;;-3.85;66.68;101700.31;15669363;28;20033;-72
2024/01/07 06:20:47;;;;;;;0.00;0.00;;;;;;;-3.86;66.60;101698.63;15671689;28;20491;-72
2024/01/07 06:28:22;;;;;;;0.00;0.00;;;;;;;-3.88;67.17;101708.34;15674192;28;20103;-73
2024/01/07 06:36:00;;;;;;;0.00;0.00;;;;;;;-3.68;66.54;101715.88;15669134;28;20118;-73
2024/01/07 06:43:35;;;;;;;0.10;0.10;;;;;;;-3.56;66.12;101716.03;15669718;28;20056;-72
2024/01/07 06:51:09;;;;;;;0.00;0.00;;;;;;;-3.55;66.66;101738.72;15668889;28;20320;-72
2024/01/07 06:58:49;;;;;;;0.00;0.00;;;;;;;-3.72;67.33;101750.25;15672379;28;20041;-73
2024/01/07 07:06:24;;;;;;;0.00;0.00;;;;;;;-3.25;66.19;101749.09;15670572;28;20052;-72
2024/01/07 07:14:04;;;;;;;0.00;0.00;;;;;;;-3.44;66.77;101763.38;15666953;28;20044;-72
2024/01/07 07:21:37;;;;;;;0.00;0.00;;;;;;;-3.58;65.33;101771.25;15672663;28;20072;-73
2024/01/07 07:29:12;;;;;;;0.00;0.00;;;;;;;-3.53;65.47;101777.06;15675104;28;20438;-72
2024/01/07 07:36:46;;;;;;;0.00;0.00;;;;;;;-3.48;65.40;101790.75;15671272;28;20065;-73
2024/01/07 07:44:20;;;;;;;0.90;0.90;;;;;;;-3.37;65.27;101792.69;15666097;28;20068;-72
2024/01/07 07:51:54;;;;;;;0.00;0.00;;;;;;;-3.24;64.62;101812.00;15664764;28;20565;-72
2024/01/07 07:59:28;;;;;;;0.00;0.00;;;;;;;-3.04;64.40;101815.19;15668648;28;20423;-73
2024/01/07 08:07:02;;;;;;;0.77;0.28;;;;;;;-2.77;63.23;101820.47;15671547;28;20422;-72
2024/01/07 08:14:37;;;;;;;0.00;0.00;;;;;;;-2.96;64.04;101820.81;15674801;28;20052;-73
2024/01/07 08:22:10;;;;;;;0.00;0.00;;;;;;;-2.60;63.29;101822.88;15675745;28;20073;-73
2024/01/07 08:29:47;;;;;;;0.00;0.00;;;;;;;-2.83;63.01;101830.44;15678522;28;20041;-72
2024/01/07 08:37:21;;;;;;;0.00;0.00;;;;;;;-2.70;63.81;101835.78;15680976;28;20072;-71
2024/01/07 08:45:00;;;;;;;0.10;0.10;;;;;;;-2.75;63.31;101844.88;15667106;28;20503;-73
2024/01/07 08:52:39;;;;;;;0.00;0.00;;;;;;;-2.10;62.59;101853.78;15660341;28;20433;-73
2024/01/07 09:00:15;;;;;;;0.00;0.00;;;;;;;-2.09;63.13;101866.00;15661611;28;20036;-72
2024/01/07 09:07:49;;;;;;;0.00;0.00;;;;;;;-1.78;61.07;101837.63;15678560;28;20075;-72
2024/01/07 09:15:24;;;;;;;0.00;0.00;;;;;;;-1.89;62.87;101848.88;15676072;28;20064;-72
2024/01/07 09:22:59;;;;;;;0.13;0.13;;;;;;;-1.05;61.40;101858.91;15677463;28;20124;-74
2024/01/07 09:30:35;;;;;;;0.10;0.10;;;;;;;-0.33;59.67;101860.81;15677639;28;20577;-71
2024/01/07 09:38:14;;;;;;;0.00;0.00;;;;;;;-0.59;60.40;101857.44;15672210;28;20529;-71
2024/01/07 09:45:54;;;;;;;0.10;0.10;;;;;;;-0.26;60.63;101852.34;15651265;28;20518;-71
2024/01/07 09:53:32;;;;;;;0.00;0.00;;;;;;;-0.09;59.23;101848.47;15675316;28;20091;-71
2024/01/07 10:01:07;;;;;;;0.00;0.00;;;;;;;-0.68;60.99;101848.41;15639138;28;20045;-70
2024/01/07 10:08:41;;;;;;;0.10;0.10;;;;;;;-0.38;60.65;101847.97;15675451;28;20048;-71
2024/01/07 10:16:16;;;;;;;0.47;0.47;;;;;;;-0.61;61.41;101847.00;15666149;28;20196;-72
2024/01/07 10:23:53;;;;;;;0.00;0.00;;;;;;;-0.63;62.16;101861.25;15674491;28;20201;-72
2024/01/07 10:31:27;;;;;;;0.00;0.00;;;;;;;-0.82;63.49;101859.94;15666744;28;20511;-72
2024/01/07 10:39:01;;;;;;;0.00;0.00;;;;;;;-1.01;64.35;101853.44;15655272;28;20433;-73
2024/01/07 10:46:39;;;;;;;0.30;0.30;;;;;;;-0.73;64.75;101858.44;15666485;28;20041;-72
2024/01/07 10:54:17;;;;;;;0.85;0.75;;;;;;;-0.94;65.49;101854.66;15672124;28;20052;-72
2024/01/07 11:01:54;;;;;;;0.00;0.00;;;;;;;-1.01;65.59;101861.34;15670913;28;20049;-73
2024/01/07 11:09:36;;;;;;;0.00;0.00;;;;;;;-0.37;63.58;101851.47;15672150;28;20132;-72
2024/01/07 11:17:14;;;;;;;0.00;0.00;;;;;;;-0.31;64.52;101843.09;15671233;28;20098;-73
2024/01/07 11:24:47;;;;;;;0.00;0.00;;;;;;;-0.31;65.29;101846.56;15671825;28;20044;-72
2024/01/07 11:32:26;;;;;;;0.10;0.10;;;;;;;-0.72;66.23;101840.81;15672179;28;20051;-73
2024/01/07 11:39:59;;;;;;;0.00;0.00;;;;;;;-0.46;66.48;101838.94;15675310;28;20040;-72
2024/01/07 11:47:36;;;;;;;0.00;0.00;;;;;;;-0.61;67.23;101839.06;15686553;22;20102;-48
2024/01/07 11:55:10;;;;;;;0.00;0.00;;;;;;;-0.07;66.53;101835.16;15674657;28;20052;-52
2024/01/07 12:02:48;;;;;;;0.30;0.30;;;;;;;0.03;65.89;101835.31;15655756;28;20041;-47
2024/01/07 12:10:21;;;;;;;0.00;0.00;;;;;;;-0.30;67.12;101837.69;15655600;28;20053;-50
2024/01/07 12:17:59;;;;;;;0.08;0.08;;;;;;;0.01;66.10;101816.97;15660296;28;20415;-50
2024/01/07 12:25:32;;;;;;;12.65;1.00;;;;;;;0.24;66.38;101817.88;15639114;28;20379;-47
2024/01/07 12:33:08;;;;;;;0.03;0.03;;;;;;;0.02;67.61;101817.81;15651490;28;20421;-55
2024/01/07 12:40:41;;;;;;;0.00;0.00;;;;;;;0.44;66.37;101833.03;15664917;28;20079;-49
2024/01/07 12:48:15;;;;;;;;;;;;;;;0.76;65.20;101842.91;15672325;28;20559;-51
2024/01/07 12:55:52;;;;;;;0.10;0.10;;;;;;;0.59;65.38;101843.38;15681281;28;19998;-49
2024/01/07 13:03:27;;;;;;;0.00;0.00;;;;;;;0.45;66.24;101841.78;15661603;28;20045;-50
2024/01/07 13:11:02;;;;;;;0.00;0.00;;;;;;;0.58;66.32;101849.63;15676328;28;20037;-50
2024/01/07 13:18:37;;;;;;;0.03;0.03;;;;;;;0.31;68.28;101842.84;15659991;28;20041;-52
2024/01/07 13:26:11;;;;;;;0.00;0.00;;;;;;;0.29;68.06;101842.13;15649795;28;20081;-49
2024/01/07 13:33:46;;;;;;;;;;;;;;;-0.19;71.04;101855.38;15662127;28;20089;-51
2024/01/07 13:41:19;;;;;;;0.10;0.10;;;;;;;-0.17;70.66;101847.38;15673094;28;19925;-48
2024/01/07 13:48:54;;;;;;;0.00;0.00;;;;;;;0.13;70.77;101844.22;15671145;28;20084;-50
2024/01/07 13:56:28;;;;;;;0.10;0.10;;;;;;;-0.19;71.68;101847.44;15671927;28;20473;-50
2024/01/07 14:04:03;;;;;;;0.55;0.55;;;;;;;-0.30;73.32;101868.53;15667452;28;20098;-48
2024/01/07 14:11:37;;;;;;;0.00;0.00;;;;;;;-0.13;71.63;101862.84;15673526;28;20525;-48
2024/01/07 14:19:14;;;;;;;0.00;0.00;;;;;;;0.02;72.75;101865.31;15678245;28;20061;-50
2024/01/07 14:26:48;;;;;;;0.00;0.00;;;;;;;-0.56;73.83;101863.34;15674332;28;20113;-48
2024/01/07 14:34:23;;;;;;;0.00;0.00;;;;;;;-0.51;75.16;101870.94;15667522;28;20049;-48
2024/01/07 14:41:56;;;;;;;0.00;0.00;;;;;;;-0.30;73.77;101874.63;15640105;28;20033;-51
2024/01/07 14:49:32;;;;;;;;;;;;;;;-0.23;73.68;101876.81;15672957;28;20041;-49
2024/01/07 14:57:08;;;;;;;0.00;0.00;;;;;;;-0.12;73.33;101877.72;15674043;28;20024;-53
2024/01/07 15:04:44;;;;;;;0.00;0.00;;;;;;;-0.11;72.81;101891.75;15671100;28;20110;-49
2024/01/07 15:12:18;;;;;;;0.00;0.00;;;;;;;-0.25;73.26;101895.41;15677365;28;20125;-47
2024/01/07 15:19:53;;;;;;;0.00;0.00;;;;;;;-0.24;72.64;101905.00;15676757;28;20040;-48
2024/01/07 15:27:29;;;;;;;0.00;0.00;;;;;;;-0.17;72.61;101908.06;15674611;28;20401;-48
2024/01/07 15:35:05;;;;;;;0.00;0.00;;;;;;;-0.42;72.59;101923.03;15675256;28;20041;-49
2024/01/07 15:42:39;;;;;;;0.00;0.00;;;;;;;-0.40;72.73;101913.19;15674062;28;20071;-48
2024/01/07 15:50:14;;;;;;;;;;;;;;;-0.10;72.18;101917.19;15641904;28;20041;-48
2024/01/07 15:57:49;;;;;;;0.00;0.00;;;;;;;0.11;70.93;101931.47;15656658;28;19924;-49
2024/01/07 16:05:27;;;;;;;0.00;0.00;;;;;;;-0.27;73.21;101931.63;15650798;28;20048;-49
2024/01/07 16:13:02;;;;;;;0.00;0.00;;;;;;;0.07;72.26;101937.91;15668602;28;20259;-50
2024/01/07 16:20:37;;;;;;;0.47;0.47;;;;;;;0.00;71.48;101934.06;15653110;28;20136;-51
2024/01/07 16:28:11;;;;;;;0.75;0.68;;;;;;;0.08;72.16;101950.16;15673979;28;20119;-49
2024/01/07 16:35:46;;;;;;;0.25;0.25;;;;;;;-0.05;72.18;101955.50;15683198;28;20044;-50
2024/01/07 16:43:21;;;;;;;0.10;0.10;;;;;;;0.27;71.69;101959.38;15684158;28;20037;-49
2024/01/07 16:50:56;;;;;;;0.20;0.20;;;;;;;0.11;70.90;101965.78;15684030;28;20049;-49
2024/01/07 16:58:31;;;;;;;0.63;0.63;;;;;;;-0.37;70.90;101978.09;15683736;28;20080;-46
2024/01/07 17:06:07;;;;;;;0.20;0.20;;;;;;;-0.26;68.21;101988.69;15659114;28;20045;-53
2024/01/07 17:13:41;;;;;;;0.10;0.10;;;;;;;-0.77;66.85;101991.41;15674495;28;20037;-49
2024/01/07 17:21:17;;;;;;;0.73;0.73;;;;;;;-0.94;66.33;102013.63;15682277;28;20045;-49
2024/01/07 17:28:50;;;;;;;0.03;0.03;;;;;;;-1.19;66.62;102009.19;15680715;28;20398;-51
2024/01/07 17:36:25;;;;;;;0.00;0.00;;;;;;;-1.31;67.02;102028.44;15679281;28;20477;-48
2024/01/07 17:43:59;;;;;;;0.00;0.00;;;;;;;-1.15;67.12;102033.53;15659239;28;20037;-48
2024/01/07 17:51:35;;;;;;;0.20;0.20;;;;;;;-1.11;67.14;102040.31;15675133;28;20438;-48
2024/01/07 17:59:08;;;;;;;0.00;0.00;;;;;;;-1.44;67.27;102046.84;15682253;28;20044;-52
2024/01/07 18:06:44;;;;;;;0.00;0.00;;;;;;;-1.24;67.78;102060.50;15674981;28;20049;-55
2024/01/07 18:14:18;;;;;;;0.20;0.20;;;;;;;-0.68;65.98;102069.03;15662176;28;20079;-53
2024/01/07 18:21:53;;;;;;;0.00;0.00;;;;;;;-1.37;67.70;102066.56;15671718;28;20444;-52
2024/01/07 18:29:27;;;;;;;0.17;0.17;;;;;;;-1.25;67.65;102079.88;15678535;28;20107;-51
2024/01/07 18:37:05;;;;;;;0.32;0.32;;;;;;;-1.32;68.84;102063.63;15678060;28;20041;-51
2024/01/07 18:44:39;;;;;;;0.10;0.10;;;;;;;-1.13;67.34;102074.63;15669778;28;20028;-50
2024/01/07 18:52:17;;;;;;;0.40;0.40;;;;;;;-1.28;67.77;102078.28;15658610;28;20076;-50
2024/01/07 18:59:50;;;;;;;1.98;1.15;;;;;;;-1.29;67.81;102082.72;15669835;28;20037;-48
2024/01/07 19:07:31;;;;;;;1.48;0.70;;;;;;;-1.34;67.81;102068.16;15643273;28;20505;-52
2024/01/07 19:15:08;;;;;;;0.03;0.03;;;;;;;-1.34;66.88;102102.41;15676261;28;20090;-52
2024/01/07 19:22:43;;;;;;;0.08;0.08;;;;;;;-1.45;65.37;102103.06;15673319;28;20045;-52
2024/01/07 19:30:18;;;;;;;0.00;0.00;;;;;;;-1.64;64.81;102115.72;15685984;28;20127;-50
2024/01/07 19:37:57;;;;;;;0.10;0.10;;;;;;;-1.92;63.55;102127.13;15657762;28;20508;-52
2024/01/07 19:45:39;;;;;;;0.05;0.05;;;;;;;-1.89;63.70;102127.81;15674768;28;20052;-50
2024/01/07 19:53:16;;;;;;;0.17;0.17;;;;;;;-2.11;63.28;102151.94;15673485;28;20506;-51
2024/01/07 20:00:52;;;;;;;0.10;0.10;;;;;;;-2.12;63.72;102157.31;15663011;28;20037;-49
2024/01/07 20:08:28;;;;;;;0.00;0.00;;;;;;;-2.40;62.69;102169.47;15675450;28;20042;-53
2024/01/07 20:16:01;;;;;;;0.00;0.00;;;;;;;-2.52;60.85;102172.81;15677811;28;20045;-53
2024/01/07 20:23:36;;;;;;;0.03;0.03;;;;;;;-2.83;57.73;102176.41;15689200;28;20057;-53
2024/01/07 20:31:09;;;;;;;0.00;0.00;;;;;;;-3.10;58.32;102187.53;15684923;28;20116;-49
2024/01/07 20:38:46;;;;;;;0.35;0.35;;;;;;;-3.35;58.72;102161.81;15701503;28;20048;-53
2024/01/07 20:46:22;;;;;;;0.20;0.20;;;;;;;-3.36;56.06;102185.50;15685333;28;20390;-51
2024/01/07 20:53:56;;;;;;;0.00;0.00;;;;;;;-3.78;54.54;102186.06;15689941;28;20094;-49
2024/01/07 21:01:32;;;;;;;0.00;0.00;;;;;;;-4.12;51.48;102186.06;15681868;28;20048;-50
2024/01/07 21:09:07;;;;;;;0.00;0.00;;;;;;;-4.28;49.81;102189.59;15684004;28;20037;-49
2024/01/07 21:16:40;;;;;;;1.75;1.60;;;;;;;-4.23;48.81;102206.75;15650666;28;20044;-52
2024/01/07 21:24:15;;;;;;;0.17;0.17;;;;;;;-4.83;49.18;102218.53;15684344;28;20540;-51
2024/01/07 21:31:49;;;;;;;0.10;0.10;;;;;;;-4.72;48.97;102216.22;15684696;28;20045;-52
2024/01/07 21:39:25;;;;;;;0.05;0.05;;;;;;;-4.93;49.12;102220.75;15684349;28;20096;-52
2024/01/07 21:46:58;;;;;;;0.10;0.10;;;;;;;-4.98;49.73;102220.13;15666316;28;20048;-50
2024/01/07 21:54:34;;;;;;;0.00;0.00;;;;;;;-5.05;50.88;102234.41;15675326;28;20047;-51
2024/01/07 22:02:07;;;;;;;0.00;0.00;;;;;;;-5.22;50.93;102240.47;15657297;28;20041;-51
2024/01/07 22:09:43;;;;;;;0.10;0.10;;;;;;;-5.48;53.41;102244.25;15656455;28;20106;-52
2024/01/07 22:17:16;;;;;;;0.10;0.10;;;;;;;-5.62;54.29;102257.97;15681483;28;20044;-51
2024/01/07 22:24:51;;;;;;;0.10;0.10;;;;;;;-5.77;56.88;102266.50;15676369;28;20033;-52
2024/01/07 22:32:25;;;;;;;0.47;0.47;;;;;;;-6.00;57.67;102276.22;15660607;28;20056;-52
2024/01/07 22:40:01;;;;;;;0.10;0.10;;;;;;;-6.27;59.15;102283.44;15676431;28;20049;-50
2024/01/07 22:47:34;;;;;;;0.30;0.30;;;;;;;-6.24;59.41;102301.63;15672603;28;20521;-49
2024/01/07 22:55:11;;;;;;;0.08;0.08;;;;;;;-6.19;60.94;102298.81;15670112;28;20124;-49
2024/01/07 23:02:46;;;;;;;0.10;0.10;;;;;;;-6.62;60.55;102299.69;15667824;28;20095;-52
2024/01/07 23:10:21;;;;;;;0.82;0.82;;;;;;;-6.40;61.15;102310.13;15655984;28;20040;-49
2024/01/07 23:17:55;;;;;;;0.13;0.13;;;;;;;-6.43;61.80;102316.34;15660216;28;20045;-49
2024/01/07 23:25:30;;;;;;;0.10;0.10;;;;;;;-6.42;62.37;102324.13;15675794;28;20055;-51
2024/01/07 23:33:03;;;;;;;0.00;0.00;;;;;;;-6.95;61.20;102334.91;15673491;28;20045;-50
2024/01/07 23:40:38;;;;;;;0.03;0.03;;;;;;;-6.98;61.21;102342.84;15648859;28;20044;-48
2024/01/07 23:48:13;;;;;;;0.10;0.10;;;;;;;-7.31;61.05;102342.34;15645540;28;20041;-55
2024/01/07 23:55:48;;;;;;;0.05;0.05;;;;;;;-7.24;60.89;102356.84;15668794;28;20482;-47
